createdAt,value
2022-11-29T00:01:07.600Z,12.83
2022-11-29T00:03:34.786Z,13.53
2022-11-29T00:06:13.026Z,12.37
2022-11-29T00:08:41.452Z,14.90
2022-11-29T00:11:38.597Z,16.17
2022-11-29T00:14:07.213Z,16.83
2022-11-29T00:16:35.148Z,16.27
2022-11-29T00:19:02.943Z,17.67
2022-11-29T00:21:29.989Z,18.13
2022-11-29T00:23:56.874Z,18.40
2022-11-29T00:26:24.006Z,18.47
2022-11-29T00:28:51.068Z,15.77
2022-11-29T00:31:20.036Z,16.37
2022-11-29T00:33:47.313Z,14.97
2022-11-29T00:36:14.945Z,13.27
2022-11-29T00:38:42.380Z,15.97
2022-11-29T00:41:10.220Z,14.17
2022-11-29T00:43:37.581Z,14.10
2022-11-29T00:46:05.562Z,12.37
2022-11-29T00:48:32.631Z,14.37
2022-11-29T00:50:59.675Z,14.97
2022-11-29T00:53:26.576Z,13.70
2022-11-29T00:55:54.383Z,11.30
2022-11-29T00:58:22.102Z,13.73
2022-11-29T01:00:49.451Z,11.50
2022-11-29T01:03:17.310Z,13.17
2022-11-29T01:05:44.821Z,14.67
2022-11-29T01:08:13.237Z,13.37
2022-11-29T01:10:40.753Z,12.30
2022-11-29T01:13:09.083Z,10.23
2022-11-29T01:15:36.653Z,12.03
2022-11-29T01:18:03.816Z,11.37
2022-11-29T01:20:31.409Z,10.93
2022-11-29T01:22:58.903Z,11.73
2022-11-29T01:25:25.976Z,13.50
2022-11-29T01:27:52.923Z,13.17
2022-11-29T01:30:19.932Z,13.33
2022-11-29T01:32:46.873Z,12.77
2022-11-29T01:35:13.730Z,15.53
2022-11-29T01:37:40.727Z,20.53
2022-11-29T01:40:08.168Z,16.03
2022-11-29T01:42:35.073Z,14.57
2022-11-29T01:45:20.409Z,16.13
2022-11-29T01:47:49.289Z,14.97
2022-11-29T01:50:16.681Z,13.83
2022-11-29T01:52:44.342Z,18.10
2022-11-29T01:55:11.997Z,17.10
2022-11-29T01:57:41.228Z,20.03
2022-11-29T02:00:15.997Z,17.53
2022-11-29T02:02:56.422Z,18.30
2022-11-29T02:05:24.926Z,19.13
2022-11-29T02:07:56.027Z,18.73
2022-11-29T02:10:37.726Z,20.67
2022-11-29T02:13:46.883Z,21.83
2022-11-29T02:16:24.337Z,20.07
2022-11-29T02:18:56.299Z,19.17
2022-11-29T02:21:30.842Z,19.17
2022-11-29T02:24:25.435Z,20.93
2022-11-29T02:27:32.580Z,20.13
2022-11-29T02:30:06.397Z,25.33
2022-11-29T02:32:57.918Z,19.30
2022-11-29T02:35:56.009Z,18.40
2022-11-29T02:40:55.445Z,15.83
2022-11-29T02:44:01.442Z,15.00
2022-11-29T02:46:43.785Z,17.13
2022-11-29T02:49:39.007Z,16.83
2022-11-29T02:52:13.341Z,16.47
2022-11-29T02:54:51.341Z,16.03
2022-11-29T02:57:41.155Z,15.27
2022-11-29T03:00:13.837Z,13.37
2022-11-29T03:02:53.372Z,16.57
2022-11-29T03:05:42.254Z,16.40
2022-11-29T03:08:45.863Z,13.37
2022-11-29T03:11:24.546Z,14.73
2022-11-29T03:14:10.071Z,12.57
2022-11-29T03:17:11.526Z,13.90
2022-11-29T03:20:13.475Z,12.10
2022-11-29T03:23:01.403Z,14.63
2022-11-29T03:25:42.597Z,15.47
2022-11-29T03:28:18.833Z,13.60
2022-11-29T03:31:13.154Z,13.98
2022-11-29T03:33:51.766Z,11.97
2022-11-29T03:37:12.269Z,13.50
2022-11-29T03:39:45.004Z,14.07
2022-11-29T03:42:20.032Z,13.67
2022-11-29T03:44:57.345Z,14.10
2022-11-29T03:47:32.095Z,13.20
2022-11-29T03:50:14.413Z,15.70
2022-11-29T03:52:52.571Z,20.80
2022-11-29T03:55:33.126Z,18.13
2022-11-29T03:58:29.642Z,15.63
2022-11-29T04:01:22.649Z,16.63
2022-11-29T04:04:26.888Z,19.37
2022-11-29T04:07:31.029Z,18.03
2022-11-29T04:10:22.759Z,19.00
2022-11-29T04:12:55.640Z,18.03
2022-11-29T04:15:44.161Z,15.17
2022-11-29T04:18:19.813Z,21.70
2022-11-29T04:21:27.898Z,21.10
2022-11-29T04:24:09.653Z,18.17
2022-11-29T04:27:09.320Z,16.93
2022-11-29T04:29:48.309Z,17.17
2022-11-29T04:32:23.843Z,16.50
2022-11-29T04:35:19.674Z,18.03
2022-11-29T04:38:01.754Z,20.10
2022-11-29T04:40:53.642Z,16.83
2022-11-29T04:43:41.745Z,15.70
2022-11-29T04:46:35.725Z,18.63
2022-11-29T04:49:21.366Z,15.67
2022-11-29T04:51:54.234Z,16.47
2022-11-29T04:54:46.075Z,14.70
2022-11-29T04:57:33.426Z,16.43
2022-11-29T05:00:18.706Z,16.75
2022-11-29T05:02:56.485Z,15.37
2022-11-29T05:05:38.653Z,18.13
2022-11-29T05:08:23.600Z,15.23
2022-11-29T05:11:04.075Z,14.57
2022-11-29T05:13:53.076Z,17.03
2022-11-29T05:16:40.527Z,14.97
2022-11-29T05:19:29.326Z,17.15
2022-11-29T05:22:06.946Z,19.70
2022-11-29T05:25:04.555Z,15.73
2022-11-29T05:27:49.974Z,18.58
2022-11-29T05:30:24.901Z,19.40
2022-11-29T05:33:28.135Z,15.00
2022-11-29T05:36:06.903Z,14.10
2022-11-29T05:39:01.581Z,16.83
2022-11-29T05:41:41.307Z,16.43
2022-11-29T05:44:18.397Z,19.37
2022-11-29T05:46:57.238Z,17.77
2022-11-29T05:49:42.508Z,19.30
2022-11-29T05:52:42.090Z,20.73
2022-11-29T05:55:14.696Z,16.70
2022-11-29T05:57:57.202Z,19.90
2022-11-29T06:00:27.066Z,20.83
2022-11-29T06:02:53.917Z,23.67
2022-11-29T06:05:46.929Z,21.67
2022-11-29T06:08:19.545Z,19.13
2022-11-29T06:11:01.517Z,24.27
2022-11-29T06:13:28.358Z,18.23
2022-11-29T06:15:56.813Z,18.97
2022-11-29T06:18:38.768Z,16.00
2022-11-29T06:21:27.970Z,19.83
2022-11-29T06:24:13.111Z,16.47
2022-11-29T06:27:08.215Z,17.27
2022-11-29T06:29:41.402Z,17.97
2022-11-29T06:32:25.493Z,20.00
2022-11-29T06:35:02.044Z,18.20
2022-11-29T06:37:38.474Z,19.03
2022-11-29T06:40:10.077Z,16.93
2022-11-29T06:42:36.959Z,16.80
2022-11-29T06:45:04.705Z,22.33
2022-11-29T06:47:44.994Z,22.80
2022-11-29T06:50:21.091Z,20.20
2022-11-29T06:53:15.109Z,20.20
2022-11-29T06:56:19.765Z,20.63
2022-11-29T06:59:05.470Z,20.60
2022-11-29T07:02:15.813Z,20.67
2022-11-29T07:05:02.790Z,17.13
2022-11-29T07:07:31.430Z,18.33
2022-11-29T07:09:59.702Z,22.53
2022-11-29T07:12:26.946Z,20.37
2022-11-29T07:14:54.166Z,18.53
2022-11-29T07:17:46.855Z,20.07
2022-11-29T07:20:38.752Z,20.63
2022-11-29T07:23:34.459Z,19.43
2022-11-29T07:26:15.019Z,19.07
2022-11-29T07:28:53.642Z,17.33
2022-11-29T07:31:51.839Z,16.77
2022-11-29T07:34:37.019Z,16.13
2022-11-29T07:37:30.358Z,17.83
2022-11-29T07:40:13.263Z,16.10
2022-11-29T07:43:09.424Z,20.60
2022-11-29T07:45:36.887Z,17.30
2022-11-29T07:48:04.764Z,19.70
2022-11-29T07:50:32.134Z,17.27
2022-11-29T07:53:00.106Z,22.20
2022-11-29T07:55:29.816Z,22.03
2022-11-29T07:57:57.010Z,18.03
2022-11-29T08:00:24.294Z,22.07
2022-11-29T08:02:51.858Z,18.67
2022-11-29T08:05:19.338Z,20.87
2022-11-29T08:07:47.871Z,19.90
2022-11-29T08:10:16.731Z,16.87
2022-11-29T08:12:47.513Z,19.83
2022-11-29T08:15:15.345Z,24.93
2022-11-29T08:17:42.550Z,23.63
2022-11-29T08:20:11.355Z,22.97
2022-11-29T08:22:38.422Z,24.30
2022-11-29T08:25:07.301Z,22.07
2022-11-29T08:27:35.558Z,20.37
2022-11-29T08:30:03.115Z,21.70
2022-11-29T08:32:32.781Z,25.03
2022-11-29T08:34:59.863Z,24.60
2022-11-29T08:37:26.837Z,22.63
2022-11-29T08:39:55.333Z,27.73
2022-11-29T08:42:22.381Z,23.10
2022-11-29T08:44:49.602Z,27.47
2022-11-29T08:47:35.448Z,25.83
2022-11-29T08:50:17.435Z,26.03
2022-11-29T08:53:05.606Z,26.73
2022-11-29T08:55:35.930Z,21.27
2022-11-29T08:58:08.743Z,23.00
2022-11-29T09:00:35.926Z,23.77
2022-11-29T09:03:23.607Z,28.77
2022-11-29T09:08:18.023Z,23.63
2022-11-29T09:10:45.433Z,26.87
2022-11-29T09:13:12.562Z,20.10
2022-11-29T09:15:41.910Z,24.10
2022-11-29T09:18:08.850Z,23.77
2022-11-29T09:20:35.835Z,22.70
2022-11-29T09:23:02.852Z,25.07
2022-11-29T09:25:29.775Z,20.90
2022-11-29T09:27:58.775Z,24.90
2022-11-29T09:30:26.515Z,22.67
2022-11-29T09:32:53.410Z,22.00
2022-11-29T09:35:20.300Z,20.33
2022-11-29T09:37:47.137Z,20.27
2022-11-29T09:40:25.630Z,20.83
2022-11-29T09:43:03.042Z,20.63
2022-11-29T09:45:41.498Z,23.30
2022-11-29T09:48:29.473Z,25.33
2022-11-29T09:51:20.595Z,19.53
2022-11-29T09:54:02.338Z,21.73
2022-11-29T09:56:46.517Z,27.53
2022-11-29T09:59:13.394Z,24.73
2022-11-29T10:01:46.250Z,28.30
2022-11-29T10:04:19.644Z,25.73
2022-11-29T10:06:58.208Z,22.30
2022-11-29T10:09:43.325Z,25.33
2022-11-29T10:12:31.091Z,24.23
2022-11-29T10:15:17.972Z,29.50
2022-11-29T10:17:54.550Z,25.85
2022-11-29T10:20:27.340Z,22.13
2022-11-29T10:23:20.481Z,29.30
2022-11-29T10:25:50.043Z,22.73
2022-11-29T10:28:20.688Z,28.23
2022-11-29T10:30:48.170Z,25.10
2022-11-29T10:33:34.072Z,25.87
2022-11-29T10:36:12.495Z,22.83
2022-11-29T10:38:39.374Z,23.97
2022-11-29T10:41:11.094Z,28.50
2022-11-29T10:43:38.458Z,25.93
2022-11-29T10:46:10.598Z,27.07
2022-11-29T10:48:37.681Z,28.80
2022-11-29T10:51:16.020Z,24.90
2022-11-29T10:53:42.969Z,26.40
2022-11-29T10:56:16.941Z,27.20
2022-11-29T10:59:05.482Z,35.87
2022-11-29T11:01:37.056Z,30.10
2022-11-29T11:04:07.539Z,32.60
2022-11-29T11:06:51.617Z,34.03
2022-11-29T11:09:27.416Z,34.70
2022-11-29T11:11:58.056Z,29.50
2022-11-29T11:14:24.899Z,26.80
2022-11-29T11:16:52.270Z,30.17
2022-11-29T11:19:32.552Z,32.97
2022-11-29T11:22:02.504Z,30.90
2022-11-29T11:24:32.577Z,30.57
2022-11-29T11:27:00.655Z,27.80
2022-11-29T11:29:44.207Z,29.90
2022-11-29T11:32:19.346Z,31.13
2022-11-29T11:34:57.879Z,32.30
2022-11-29T11:37:35.919Z,33.27
2022-11-29T11:40:29.209Z,29.37
2022-11-29T11:43:02.895Z,30.67
2022-11-29T11:45:37.170Z,30.27
2022-11-29T11:48:16.019Z,30.53
2022-11-29T11:50:56.880Z,32.90
2022-11-29T11:53:29.046Z,31.10
2022-11-29T11:56:04.002Z,25.97
2022-11-29T11:58:39.248Z,32.97
2022-11-29T12:01:12.338Z,35.67
2022-11-29T12:03:54.426Z,28.40
2022-11-29T12:06:48.421Z,24.97
2022-11-29T12:09:19.831Z,27.10
2022-11-29T12:11:51.261Z,24.33
2022-11-29T12:14:28.701Z,24.37
2022-11-29T12:17:09.713Z,24.33
2022-11-29T12:19:49.625Z,25.77
2022-11-29T12:22:22.923Z,26.73
2022-11-29T12:25:02.558Z,32.17
2022-11-29T12:27:32.093Z,27.07
2022-11-29T12:29:59.160Z,31.47
2022-11-29T12:32:51.809Z,30.07
2022-11-29T12:35:24.639Z,23.97
2022-11-29T12:38:01.028Z,25.23
2022-11-29T12:40:53.255Z,28.17
2022-11-29T12:43:38.974Z,26.13
2022-11-29T12:46:19.408Z,21.60
2022-11-29T12:49:11.985Z,27.17
2022-11-29T12:52:12.608Z,27.63
2022-11-29T12:55:06.829Z,26.23
2022-11-29T12:57:36.865Z,26.60
2022-11-29T13:00:16.553Z,23.13
2022-11-29T13:02:56.324Z,22.40
2022-11-29T13:05:42.590Z,24.10
2022-11-29T13:08:36.794Z,21.47
2022-11-29T13:11:16.454Z,26.70
2022-11-29T13:13:47.876Z,24.13
2022-11-29T13:16:29.218Z,26.17
2022-11-29T13:19:29.585Z,26.03
2022-11-29T13:22:08.380Z,24.67
2022-11-29T13:24:43.121Z,24.73
2022-11-29T13:27:17.158Z,28.83
2022-11-29T13:29:44.168Z,25.63
2022-11-29T13:32:39.037Z,28.50
2022-11-29T13:35:14.945Z,29.17
2022-11-29T13:38:10.153Z,24.13
2022-11-29T13:40:50.510Z,35.10
2022-11-29T13:43:38.996Z,27.43
2022-11-29T13:46:36.625Z,26.67
2022-11-29T13:49:03.560Z,25.92
2022-11-29T13:51:35.411Z,26.73
2022-11-29T13:54:05.508Z,26.43
2022-11-29T13:56:47.818Z,26.57
2022-11-29T13:59:31.017Z,24.50
2022-11-29T14:01:59.262Z,27.10
2022-11-29T14:04:47.367Z,31.50
2022-11-29T14:07:19.696Z,25.90
2022-11-29T14:10:05.650Z,30.53
2022-11-29T14:12:50.771Z,24.60
2022-11-29T14:15:32.236Z,26.47
2022-11-29T14:18:03.054Z,24.07
2022-11-29T14:20:30.097Z,28.77
2022-11-29T14:23:06.440Z,26.60
2022-11-29T14:25:52.442Z,26.40
2022-11-29T14:28:22.602Z,31.77
2022-11-29T14:30:57.305Z,25.93
2022-11-29T14:33:51.108Z,20.63
2022-11-29T14:36:23.816Z,19.43
2022-11-29T14:39:15.464Z,19.47
2022-11-29T14:41:54.412Z,23.13
2022-11-29T14:44:28.556Z,20.97
2022-11-29T14:47:13.598Z,27.87
2022-11-29T14:49:43.600Z,27.90
2022-11-29T14:52:13.573Z,22.50
2022-11-29T14:55:03.817Z,25.33
2022-11-29T14:58:11.870Z,28.13
2022-11-29T15:00:52.698Z,26.85
2022-11-29T15:03:30.738Z,30.93
2022-11-29T15:06:08.948Z,26.40
2022-11-29T15:08:46.916Z,22.33
2022-11-29T15:11:18.407Z,26.13
2022-11-29T15:14:11.509Z,26.77
2022-11-29T15:16:41.412Z,23.97
2022-11-29T15:19:43.742Z,21.03
2022-11-29T15:22:21.112Z,25.67
2022-11-29T15:25:02.284Z,23.40
2022-11-29T15:27:30.693Z,23.27
2022-11-29T15:29:59.205Z,22.10
2022-11-29T15:32:31.023Z,23.07
2022-11-29T15:34:58.959Z,18.77
2022-11-29T15:37:32.057Z,24.37
2022-11-29T15:40:12.933Z,27.57
2022-11-29T15:42:52.658Z,27.53
2022-11-29T15:45:32.367Z,25.97
2022-11-29T15:48:23.339Z,25.70
2022-11-29T15:50:58.995Z,24.83
2022-11-29T15:53:33.272Z,34.87
2022-11-29T15:56:03.557Z,23.43
2022-11-29T15:58:33.634Z,22.50
2022-11-29T16:01:02.005Z,27.77
2022-11-29T16:03:32.964Z,22.60
2022-11-29T16:06:25.537Z,22.93
2022-11-29T16:08:54.359Z,19.83
2022-11-29T16:11:24.777Z,23.67
2022-11-29T16:14:02.969Z,24.73
2022-11-29T16:16:32.926Z,24.47
2022-11-29T16:19:30.947Z,21.43
2022-11-29T16:24:34.296Z,19.77
2022-11-29T16:27:02.724Z,21.97
2022-11-29T16:29:33.819Z,23.10
2022-11-29T16:32:32.040Z,23.80
2022-11-29T16:35:24.756Z,21.80
2022-11-29T16:37:52.556Z,25.03
2022-11-29T16:40:28.638Z,20.77
2022-11-29T16:43:04.474Z,18.98
2022-11-29T16:45:35.475Z,20.93
2022-11-29T16:48:14.221Z,20.73
2022-11-29T16:50:41.222Z,17.47
2022-11-29T16:53:51.950Z,19.43
2022-11-29T16:56:28.132Z,19.03
2022-11-29T16:59:20.845Z,22.45
2022-11-29T17:01:49.590Z,21.20
2022-11-29T17:04:24.515Z,22.73
2022-11-29T17:06:56.417Z,23.27
2022-11-29T17:09:27.261Z,19.67
2022-11-29T17:11:55.563Z,20.80
2022-11-29T17:14:22.920Z,22.83
2022-11-29T17:16:50.395Z,20.33
2022-11-29T17:19:19.729Z,17.13
2022-11-29T17:21:46.846Z,23.37
2022-11-29T17:24:17.409Z,19.63
2022-11-29T17:26:45.520Z,19.03
2022-11-29T17:29:14.759Z,20.60
2022-11-29T17:31:44.288Z,19.33
2022-11-29T17:34:11.718Z,17.77
2022-11-29T17:36:38.975Z,23.90
2022-11-29T17:39:06.483Z,21.90
2022-11-29T17:41:34.201Z,22.97
2022-11-29T17:44:01.644Z,21.30
2022-11-29T17:46:31.345Z,21.07
2022-11-29T17:49:06.814Z,19.90
2022-11-29T17:51:52.630Z,20.97
2022-11-29T17:54:21.365Z,18.17
2022-11-29T17:56:48.677Z,18.27
2022-11-29T17:59:15.600Z,19.03
2022-11-29T18:01:42.574Z,19.17
2022-11-29T18:04:09.943Z,20.50
2022-11-29T18:06:40.279Z,17.97
2022-11-29T18:09:09.137Z,20.03
2022-11-29T18:11:47.005Z,22.13
2022-11-29T18:14:18.660Z,22.60
2022-11-29T18:16:46.157Z,20.80
2022-11-29T18:19:19.807Z,18.13
2022-11-29T18:21:47.614Z,20.57
2022-11-29T18:24:15.160Z,20.90
2022-11-29T18:26:42.885Z,21.50
2022-11-29T18:29:10.763Z,21.43
2022-11-29T18:31:41.102Z,18.53
2022-11-29T18:34:10.911Z,28.87
2022-11-29T18:36:45.653Z,23.40
2022-11-29T18:39:15.612Z,23.17
2022-11-29T18:41:45.236Z,23.77
2022-11-29T18:44:14.441Z,23.60
2022-11-29T18:46:43.558Z,24.13
2022-11-29T18:49:13.685Z,21.60
2022-11-29T18:51:43.029Z,21.20
2022-11-29T18:54:10.523Z,22.20
2022-11-29T18:56:38.169Z,22.30
2022-11-29T18:59:10.312Z,23.00
2022-11-29T19:01:41.488Z,23.40
2022-11-29T19:04:11.393Z,25.00
2022-11-29T19:06:39.915Z,19.97
2022-11-29T19:09:11.355Z,21.27
2022-11-29T19:11:38.557Z,22.93
2022-11-29T19:14:11.548Z,22.57
2022-11-29T19:16:44.680Z,21.47
2022-11-29T19:19:13.155Z,22.93
2022-11-29T19:21:40.791Z,25.93
2022-11-29T19:24:15.959Z,30.50
2022-11-29T19:26:47.150Z,22.03
2022-11-29T19:29:14.742Z,22.67
2022-11-29T19:31:42.720Z,21.17
2022-11-29T19:34:11.355Z,22.33
2022-11-29T19:36:42.770Z,22.70
2022-11-29T19:39:17.458Z,26.57
2022-11-29T19:41:47.328Z,23.63
2022-11-29T19:44:14.636Z,21.77
2022-11-29T19:46:45.822Z,21.77
2022-11-29T19:49:13.087Z,22.20
2022-11-29T19:51:40.790Z,19.43
2022-11-29T19:54:09.136Z,22.73
2022-11-29T19:56:36.199Z,22.43
2022-11-29T19:59:03.263Z,22.40
2022-11-29T20:01:39.673Z,25.73
2022-11-29T20:04:09.058Z,22.30
2022-11-29T20:06:36.447Z,22.80
2022-11-29T20:09:04.890Z,22.93
2022-11-29T20:11:31.976Z,21.90
2022-11-29T20:14:01.425Z,23.00
2022-11-29T20:16:30.317Z,23.33
2022-11-29T20:18:58.295Z,23.87
2022-11-29T20:21:31.623Z,25.33
2022-11-29T20:24:05.952Z,22.57
2022-11-29T20:26:36.738Z,19.73
2022-11-29T20:29:06.116Z,24.90
2022-11-29T20:31:35.207Z,23.03
2022-11-29T20:34:07.332Z,23.83
2022-11-29T20:36:52.205Z,22.60
2022-11-29T20:39:31.005Z,23.20
2022-11-29T20:42:16.598Z,23.23
2022-11-29T20:44:58.374Z,22.07
2022-11-29T20:47:48.269Z,24.17
2022-11-29T20:50:25.984Z,26.43
2022-11-29T20:53:16.988Z,24.87
2022-11-29T20:55:47.952Z,22.97
2022-11-29T20:58:16.264Z,20.80
2022-11-29T21:00:43.426Z,26.63
2022-11-29T21:03:20.595Z,24.83
2022-11-29T21:05:48.416Z,26.57
2022-11-29T21:08:17.107Z,26.37
2022-11-29T21:10:45.500Z,26.03
2022-11-29T21:13:13.591Z,24.00
2022-11-29T21:15:41.375Z,27.63
2022-11-29T21:18:20.259Z,23.43
2022-11-29T21:20:53.726Z,24.13
2022-11-29T21:23:47.086Z,23.13
2022-11-29T21:26:19.346Z,21.80
2022-11-29T21:29:01.483Z,25.70
2022-11-29T21:31:28.678Z,24.70
2022-11-29T21:33:55.927Z,23.37
2022-11-29T21:36:22.856Z,23.37
2022-11-29T21:38:54.685Z,25.53
2022-11-29T21:41:22.122Z,24.07
2022-11-29T21:46:36.338Z,21.77
2022-11-29T21:49:03.850Z,25.83
2022-11-29T21:51:30.757Z,22.53
2022-11-29T21:53:57.731Z,21.77
2022-11-29T21:56:24.627Z,24.47
2022-11-29T21:58:51.632Z,24.20
2022-11-29T22:01:20.537Z,32.53
2022-11-29T22:03:47.685Z,48.07
2022-11-29T22:06:20.329Z,54.03
2022-11-29T22:08:48.653Z,79.37
2022-11-29T22:11:30.912Z,77.87
2022-11-29T22:14:14.782Z,54.93
2022-11-29T22:16:50.668Z,81.97
2022-11-29T22:19:26.531Z,64.23
2022-11-29T22:21:56.778Z,73.87
2022-11-29T22:24:25.817Z,72.23
2022-11-29T22:26:53.747Z,65.93
2022-11-29T22:29:21.463Z,63.83
2022-11-29T22:31:50.801Z,61.63
2022-11-29T22:34:17.753Z,43.40
2022-11-29T22:36:44.981Z,35.47
2022-11-29T22:39:12.194Z,32.47
2022-11-29T22:41:40.386Z,32.30
2022-11-29T22:44:07.880Z,29.03
2022-11-29T22:46:40.553Z,30.90
2022-11-29T22:49:07.547Z,28.67
2022-11-29T22:51:36.459Z,30.07
2022-11-29T22:54:06.670Z,29.20
2022-11-29T22:56:39.342Z,26.90
2022-11-29T22:59:07.014Z,31.17
2022-11-29T23:01:36.161Z,29.90
2022-11-29T23:04:06.124Z,35.43
2022-11-29T23:06:35.868Z,30.97
2022-11-29T23:09:10.706Z,38.20
2022-11-29T23:11:38.583Z,38.90
2022-11-29T23:14:05.492Z,39.93
2022-11-29T23:16:33.080Z,44.93
2022-11-29T23:19:00.969Z,41.80
2022-11-29T23:21:33.713Z,45.40
2022-11-29T23:24:01.587Z,48.90
2022-11-29T23:26:36.501Z,39.10
2022-11-29T23:29:04.772Z,35.57
2022-11-29T23:31:31.921Z,35.57
2022-11-29T23:33:59.052Z,32.70
2022-11-29T23:36:26.152Z,30.43
2022-11-29T23:38:53.111Z,33.57
2022-11-29T23:41:20.053Z,27.63
2022-11-29T23:43:47.082Z,27.93
2022-11-29T23:46:18.176Z,28.80
2022-11-29T23:48:45.216Z,26.97
2022-11-29T23:51:12.482Z,27.30
2022-11-29T23:53:40.399Z,30.60
2022-11-29T23:56:25.649Z,30.00
2022-11-29T23:58:52.544Z,29.00
